sensor_id;sensor_type;location;lat;lon;timestamp;P1;durP1;ratioP1;P2;durP2;ratioP2
78614;SDS011;67937;52.488;20.952;2023-08-07T00:02:20;0.30;;;0.20;;
78614;SDS011;67937;52.488;20.952;2023-08-07T00:04:53;0.00;;;0.00;;
78614;SDS011;67937;52.488;20.952;2023-08-07T00:07:21;0.50;;;0.30;;
78614;SDS011;67937;52.488;20.952;2023-08-07T00:10:06;0.70;;;0.70;;
78614;SDS011;67937;52.488;20.952;2023-08-07T00:12:35;0.10;;;0.10;;
78614;SDS011;67937;52.488;20.952;2023-08-07T00:15:34;1.60;;;0.20;;
78614;SDS011;67937;52.488;20.952;2023-08-07T00:18:05;1.20;;;0.20;;
78614;SDS011;67937;52.488;20.952;2023-08-07T00:20:44;0.10;;;0.10;;
78614;SDS011;67937;52.488;20.952;2023-08-07T00:23:13;0.50;;;0.10;;
78614;SDS011;67937;52.488;20.952;2023-08-07T00:25:51;0.50;;;0.20;;
78614;SDS011;67937;52.488;20.952;2023-08-07T00:28:19;0.10;;;0.10;;
78614;SDS011;67937;52.488;20.952;2023-08-07T00:30:47;0.60;;;0.10;;
78614;SDS011;67937;52.488;20.952;2023-08-07T00:33:15;0.20;;;0.20;;
78614;SDS011;67937;52.488;20.952;2023-08-07T00:35:44;0.90;;;0.30;;
78614;SDS011;67937;52.488;20.952;2023-08-07T00:38:16;1.10;;;0.30;;
78614;SDS011;67937;52.488;20.952;2023-08-07T00:40:44;0.60;;;0.30;;
78614;SDS011;67937;52.488;20.952;2023-08-07T00:43:14;0.10;;;0.10;;
78614;SDS011;67937;52.488;20.952;2023-08-07T00:45:46;0.80;;;0.30;;
78614;SDS011;67937;52.488;20.952;2023-08-07T00:48:16;0.10;;;0.10;;
78614;SDS011;67937;52.488;20.952;2023-08-07T00:50:49;0.10;;;0.10;;
78614;SDS011;67937;52.488;20.952;2023-08-07T00:53:19;0.20;;;0.20;;
78614;SDS011;67937;52.488;20.952;2023-08-07T00:56:15;0.10;;;0.10;;
78614;SDS011;67937;52.488;20.952;2023-08-07T00:58:58;0.00;;;0.00;;
78614;SDS011;67937;52.488;20.952;2023-08-07T01:01:49;0.20;;;0.20;;
78614;SDS011;67937;52.488;20.952;2023-08-07T01:04:17;0.20;;;0.20;;
78614;SDS011;67937;52.488;20.952;2023-08-07T01:06:46;0.60;;;0.10;;
78614;SDS011;67937;52.488;20.952;2023-08-07T01:09:17;0.10;;;0.10;;
78614;SDS011;67937;52.488;20.952;2023-08-07T01:11:49;0.20;;;0.20;;
78614;SDS011;67937;52.488;20.952;2023-08-07T01:14:28;0.10;;;0.10;;
78614;SDS011;67937;52.488;20.952;2023-08-07T01:17:09;0.20;;;0.20;;
78614;SDS011;67937;52.488;20.952;2023-08-07T01:19:42;0.10;;;0.10;;
78614;SDS011;67937;52.488;20.952;2023-08-07T01:22:14;0.20;;;0.20;;
78614;SDS011;67937;52.488;20.952;2023-08-07T01:24:44;0.10;;;0.10;;
78614;SDS011;67937;52.488;20.952;2023-08-07T01:35:28;0.10;;;0.10;;
78614;SDS011;67937;52.488;20.952;2023-08-07T01:38:00;0.40;;;0.40;;
78614;SDS011;67937;52.488;20.952;2023-08-07T01:40:29;0.20;;;0.20;;
78614;SDS011;67937;52.488;20.952;2023-08-07T01:42:58;0.50;;;0.20;;
78614;SDS011;67937;52.488;20.952;2023-08-07T01:45:27;0.70;;;0.40;;
78614;SDS011;67937;52.488;20.952;2023-08-07T01:47:56;3.10;;;0.40;;
78614;SDS011;67937;52.488;20.952;2023-08-07T01:50:40;0.60;;;0.40;;
78614;SDS011;67937;52.488;20.952;2023-08-07T01:53:09;0.50;;;0.50;;
78614;SDS011;67937;52.488;20.952;2023-08-07T01:55:38;0.40;;;0.40;;
78614;SDS011;67937;52.488;20.952;2023-08-07T01:58:06;0.40;;;0.40;;
78614;SDS011;67937;52.488;20.952;2023-08-07T02:00:40;0.40;;;0.40;;
78614;SDS011;67937;52.488;20.952;2023-08-07T02:03:48;0.50;;;0.40;;
78614;SDS011;67937;52.488;20.952;2023-08-07T02:06:17;0.40;;;0.40;;
78614;SDS011;67937;52.488;20.952;2023-08-07T02:08:48;0.60;;;0.60;;
78614;SDS011;67937;52.488;20.952;2023-08-07T02:11:16;0.80;;;0.80;;
78614;SDS011;67937;52.488;20.952;2023-08-07T02:13:45;0.80;;;0.70;;
78614;SDS011;67937;52.488;20.952;2023-08-07T02:16:30;1.00;;;1.00;;
78614;SDS011;67937;52.488;20.952;2023-08-07T02:18:58;0.80;;;0.80;;
78614;SDS011;67937;52.488;20.952;2023-08-07T02:21:26;0.70;;;0.70;;
78614;SDS011;67937;52.488;20.952;2023-08-07T02:24:10;0.90;;;0.90;;
78614;SDS011;67937;52.488;20.952;2023-08-07T02:26:40;0.70;;;0.70;;
78614;SDS011;67937;52.488;20.952;2023-08-07T02:29:07;0.70;;;0.70;;
78614;SDS011;67937;52.488;20.952;2023-08-07T02:31:35;0.80;;;0.80;;
78614;SDS011;67937;52.488;20.952;2023-08-07T02:34:03;1.00;;;0.90;;
78614;SDS011;67937;52.488;20.952;2023-08-07T02:36:31;1.20;;;0.80;;
78614;SDS011;67937;52.488;20.952;2023-08-07T02:38:59;0.70;;;0.60;;
78614;SDS011;67937;52.488;20.952;2023-08-07T02:41:27;0.90;;;0.90;;
78614;SDS011;67937;52.488;20.952;2023-08-07T02:43:55;0.90;;;0.90;;
78614;SDS011;67937;52.488;20.952;2023-08-07T02:46:23;0.70;;;0.70;;
78614;SDS011;67937;52.488;20.952;2023-08-07T02:48:51;1.30;;;0.80;;
78614;SDS011;67937;52.488;20.952;2023-08-07T02:51:20;0.70;;;0.70;;
78614;SDS011;67937;52.488;20.952;2023-08-07T02:53:47;2.20;;;0.70;;
78614;SDS011;67937;52.488;20.952;2023-08-07T02:56:15;0.50;;;0.50;;
78614;SDS011;67937;52.488;20.952;2023-08-07T02:58:49;0.60;;;0.60;;
78614;SDS011;67937;52.488;20.952;2023-08-07T03:01:40;0.60;;;0.60;;
78614;SDS011;67937;52.488;20.952;2023-08-07T03:04:28;0.70;;;0.70;;
78614;SDS011;67937;52.488;20.952;2023-08-07T03:07:08;0.50;;;0.50;;
78614;SDS011;67937;52.488;20.952;2023-08-07T03:09:48;2.20;;;1.20;;
78614;SDS011;67937;52.488;20.952;2023-08-07T03:12:26;0.80;;;0.80;;
78614;SDS011;67937;52.488;20.952;2023-08-07T03:15:45;0.80;;;0.80;;
78614;SDS011;67937;52.488;20.952;2023-08-07T03:20:44;1.20;;;0.70;;
78614;SDS011;67937;52.488;20.952;2023-08-07T03:23:12;0.70;;;0.70;;
78614;SDS011;67937;52.488;20.952;2023-08-07T03:25:40;0.80;;;0.80;;
78614;SDS011;67937;52.488;20.952;2023-08-07T03:28:08;2.20;;;0.70;;
78614;SDS011;67937;52.488;20.952;2023-08-07T03:30:36;0.90;;;0.80;;
78614;SDS011;67937;52.488;20.952;2023-08-07T03:33:04;0.90;;;0.80;;
78614;SDS011;67937;52.488;20.952;2023-08-07T03:35:33;0.90;;;0.70;;
78614;SDS011;67937;52.488;20.952;2023-08-07T03:38:01;0.80;;;0.80;;
78614;SDS011;67937;52.488;20.952;2023-08-07T03:40:29;0.90;;;0.90;;
78614;SDS011;67937;52.488;20.952;2023-08-07T03:42:57;1.40;;;1.00;;
78614;SDS011;67937;52.488;20.952;2023-08-07T03:45:25;2.70;;;0.90;;
78614;SDS011;67937;52.488;20.952;2023-08-07T03:47:53;0.80;;;0.80;;
78614;SDS011;67937;52.488;20.952;2023-08-07T03:50:21;1.80;;;0.90;;
78614;SDS011;67937;52.488;20.952;2023-08-07T03:52:49;0.60;;;0.60;;
78614;SDS011;67937;52.488;20.952;2023-08-07T03:55:17;1.30;;;1.00;;
78614;SDS011;67937;52.488;20.952;2023-08-07T03:58:01;0.80;;;0.80;;
78614;SDS011;67937;52.488;20.952;2023-08-07T04:00:30;1.20;;;1.20;;
78614;SDS011;67937;52.488;20.952;2023-08-07T04:03:03;1.00;;;1.00;;
78614;SDS011;67937;52.488;20.952;2023-08-07T04:05:40;0.90;;;0.70;;
78614;SDS011;67937;52.488;20.952;2023-08-07T04:08:39;1.00;;;1.00;;
78614;SDS011;67937;52.488;20.952;2023-08-07T04:11:55;0.60;;;0.60;;
78614;SDS011;67937;52.488;20.952;2023-08-07T04:14:23;0.70;;;0.70;;
78614;SDS011;67937;52.488;20.952;2023-08-07T04:16:51;1.00;;;1.00;;
78614;SDS011;67937;52.488;20.952;2023-08-07T04:19:19;1.00;;;1.00;;
78614;SDS011;67937;52.488;20.952;2023-08-07T04:21:47;1.50;;;1.20;;
78614;SDS011;67937;52.488;20.952;2023-08-07T04:24:15;1.10;;;1.10;;
78614;SDS011;67937;52.488;20.952;2023-08-07T04:26:43;0.90;;;0.90;;
78614;SDS011;67937;52.488;20.952;2023-08-07T04:29:11;0.90;;;0.90;;
78614;SDS011;67937;52.488;20.952;2023-08-07T04:31:39;1.50;;;1.00;;
78614;SDS011;67937;52.488;20.952;2023-08-07T04:34:07;1.30;;;1.20;;
78614;SDS011;67937;52.488;20.952;2023-08-07T04:36:45;1.00;;;1.00;;
78614;SDS011;67937;52.488;20.952;2023-08-07T04:39:13;0.70;;;0.70;;
78614;SDS011;67937;52.488;20.952;2023-08-07T04:41:41;1.10;;;1.00;;
78614;SDS011;67937;52.488;20.952;2023-08-07T04:44:09;1.00;;;1.00;;
78614;SDS011;67937;52.488;20.952;2023-08-07T04:46:37;0.90;;;0.90;;
78614;SDS011;67937;52.488;20.952;2023-08-07T04:49:05;0.80;;;0.80;;
78614;SDS011;67937;52.488;20.952;2023-08-07T04:51:33;0.80;;;0.80;;
78614;SDS011;67937;52.488;20.952;2023-08-07T04:54:01;1.40;;;1.10;;
78614;SDS011;67937;52.488;20.952;2023-08-07T04:56:29;1.40;;;1.00;;
78614;SDS011;67937;52.488;20.952;2023-08-07T04:58:57;1.00;;;1.00;;
78614;SDS011;67937;52.488;20.952;2023-08-07T05:01:27;1.30;;;1.30;;
78614;SDS011;67937;52.488;20.952;2023-08-07T05:03:55;1.40;;;1.40;;
78614;SDS011;67937;52.488;20.952;2023-08-07T05:06:23;1.10;;;1.10;;
78614;SDS011;67937;52.488;20.952;2023-08-07T05:08:51;1.10;;;1.10;;
78614;SDS011;67937;52.488;20.952;2023-08-07T05:11:19;1.40;;;1.40;;
78614;SDS011;67937;52.488;20.952;2023-08-07T05:13:47;1.10;;;1.10;;
78614;SDS011;67937;52.488;20.952;2023-08-07T05:16:15;1.20;;;1.20;;
78614;SDS011;67937;52.488;20.952;2023-08-07T05:18:45;1.80;;;1.70;;
78614;SDS011;67937;52.488;20.952;2023-08-07T05:21:13;1.30;;;1.30;;
78614;SDS011;67937;52.488;20.952;2023-08-07T05:23:41;1.40;;;1.30;;
78614;SDS011;67937;52.488;20.952;2023-08-07T05:26:09;1.20;;;1.20;;
78614;SDS011;67937;52.488;20.952;2023-08-07T05:28:37;1.60;;;1.50;;
78614;SDS011;67937;52.488;20.952;2023-08-07T05:31:05;1.30;;;1.30;;
78614;SDS011;67937;52.488;20.952;2023-08-07T05:33:33;1.10;;;1.10;;
78614;SDS011;67937;52.488;20.952;2023-08-07T05:36:01;1.10;;;1.10;;
78614;SDS011;67937;52.488;20.952;2023-08-07T05:38:29;1.60;;;1.50;;
78614;SDS011;67937;52.488;20.952;2023-08-07T05:40:56;0.90;;;0.90;;
78614;SDS011;67937;52.488;20.952;2023-08-07T05:43:24;1.20;;;1.20;;
78614;SDS011;67937;52.488;20.952;2023-08-07T05:45:52;1.00;;;1.00;;
78614;SDS011;67937;52.488;20.952;2023-08-07T05:48:21;1.80;;;0.90;;
78614;SDS011;67937;52.488;20.952;2023-08-07T05:50:50;0.90;;;0.90;;
78614;SDS011;67937;52.488;20.952;2023-08-07T05:53:19;1.00;;;1.00;;
78614;SDS011;67937;52.488;20.952;2023-08-07T05:55:47;0.90;;;0.90;;
78614;SDS011;67937;52.488;20.952;2023-08-07T05:58:15;1.10;;;1.00;;
78614;SDS011;67937;52.488;20.952;2023-08-07T06:00:43;0.90;;;0.90;;
78614;SDS011;67937;52.488;20.952;2023-08-07T06:03:11;0.80;;;0.80;;
78614;SDS011;67937;52.488;20.952;2023-08-07T06:05:39;0.80;;;0.80;;
78614;SDS011;67937;52.488;20.952;2023-08-07T06:08:07;0.80;;;0.80;;
78614;SDS011;67937;52.488;20.952;2023-08-07T06:10:35;0.90;;;0.90;;
78614;SDS011;67937;52.488;20.952;2023-08-07T06:13:03;3.20;;;1.10;;
78614;SDS011;67937;52.488;20.952;2023-08-07T06:15:32;1.50;;;1.30;;
78614;SDS011;67937;52.488;20.952;2023-08-07T06:18:00;1.00;;;0.90;;
78614;SDS011;67937;52.488;20.952;2023-08-07T06:20:28;0.50;;;0.50;;
78614;SDS011;67937;52.488;20.952;2023-08-07T06:22:56;1.10;;;1.00;;
78614;SDS011;67937;52.488;20.952;2023-08-07T06:25:25;0.90;;;0.90;;
78614;SDS011;67937;52.488;20.952;2023-08-07T06:27:53;0.70;;;0.70;;
78614;SDS011;67937;52.488;20.952;2023-08-07T06:30:22;0.80;;;0.80;;
78614;SDS011;67937;52.488;20.952;2023-08-07T06:32:50;0.70;;;0.70;;
78614;SDS011;67937;52.488;20.952;2023-08-07T06:35:17;0.80;;;0.80;;
78614;SDS011;67937;52.488;20.952;2023-08-07T06:37:45;2.50;;;0.90;;
78614;SDS011;67937;52.488;20.952;2023-08-07T06:40:14;0.60;;;0.60;;
78614;SDS011;67937;52.488;20.952;2023-08-07T06:42:42;3.20;;;0.80;;
78614;SDS011;67937;52.488;20.952;2023-08-07T06:45:10;0.90;;;0.90;;
78614;SDS011;67937;52.488;20.952;2023-08-07T06:47:38;1.20;;;1.00;;
78614;SDS011;67937;52.488;20.952;2023-08-07T06:50:06;1.00;;;1.00;;
78614;SDS011;67937;52.488;20.952;2023-08-07T06:52:34;1.10;;;1.10;;
78614;SDS011;67937;52.488;20.952;2023-08-07T06:55:02;1.40;;;0.90;;
78614;SDS011;67937;52.488;20.952;2023-08-07T06:57:31;1.90;;;1.10;;
78614;SDS011;67937;52.488;20.952;2023-08-07T06:59:59;0.90;;;0.90;;
78614;SDS011;67937;52.488;20.952;2023-08-07T07:02:27;2.00;;;0.80;;
78614;SDS011;67937;52.488;20.952;2023-08-07T07:04:55;3.20;;;1.00;;
78614;SDS011;67937;52.488;20.952;2023-08-07T07:07:23;0.60;;;0.60;;
78614;SDS011;67937;52.488;20.952;2023-08-07T07:09:58;0.70;;;0.70;;
78614;SDS011;67937;52.488;20.952;2023-08-07T07:12:27;0.90;;;0.90;;
78614;SDS011;67937;52.488;20.952;2023-08-07T07:14:55;1.20;;;0.90;;
78614;SDS011;67937;52.488;20.952;2023-08-07T07:17:23;1.50;;;1.50;;
78614;SDS011;67937;52.488;20.952;2023-08-07T07:19:51;1.60;;;1.10;;
78614;SDS011;67937;52.488;20.952;2023-08-07T07:22:19;1.30;;;1.10;;
78614;SDS011;67937;52.488;20.952;2023-08-07T07:24:47;1.40;;;1.10;;
78614;SDS011;67937;52.488;20.952;2023-08-07T07:27:15;0.90;;;0.90;;
78614;SDS011;67937;52.488;20.952;2023-08-07T07:29:43;3.60;;;1.40;;
78614;SDS011;67937;52.488;20.952;2023-08-07T07:32:11;0.80;;;0.80;;
78614;SDS011;67937;52.488;20.952;2023-08-07T07:34:40;1.70;;;1.00;;
78614;SDS011;67937;52.488;20.952;2023-08-07T07:37:08;1.30;;;1.20;;
78614;SDS011;67937;52.488;20.952;2023-08-07T07:39:36;1.70;;;1.20;;
78614;SDS011;67937;52.488;20.952;2023-08-07T07:42:04;1.60;;;1.20;;
78614;SDS011;67937;52.488;20.952;2023-08-07T07:44:32;1.30;;;1.30;;
78614;SDS011;67937;52.488;20.952;2023-08-07T07:47:01;0.80;;;0.80;;
78614;SDS011;67937;52.488;20.952;2023-08-07T07:49:32;1.10;;;1.10;;
78614;SDS011;67937;52.488;20.952;2023-08-07T07:52:00;0.90;;;0.90;;
78614;SDS011;67937;52.488;20.952;2023-08-07T07:54:28;1.00;;;0.80;;
78614;SDS011;67937;52.488;20.952;2023-08-07T07:56:56;0.80;;;0.80;;
78614;SDS011;67937;52.488;20.952;2023-08-07T08:01:55;1.10;;;1.00;;
78614;SDS011;67937;52.488;20.952;2023-08-07T08:08:53;1.20;;;1.10;;
78614;SDS011;67937;52.488;20.952;2023-08-07T08:15:05;3.30;;;1.00;;
78614;SDS011;67937;52.488;20.952;2023-08-07T08:17:33;1.30;;;1.20;;
78614;SDS011;67937;52.488;20.952;2023-08-07T08:20:04;1.80;;;1.10;;
78614;SDS011;67937;52.488;20.952;2023-08-07T08:22:33;1.80;;;1.30;;
78614;SDS011;67937;52.488;20.952;2023-08-07T08:25:02;1.90;;;1.20;;
78614;SDS011;67937;52.488;20.952;2023-08-07T08:27:32;1.10;;;1.10;;
78614;SDS011;67937;52.488;20.952;2023-08-07T08:30:01;1.40;;;1.40;;
78614;SDS011;67937;52.488;20.952;2023-08-07T08:32:30;0.90;;;0.90;;
78614;SDS011;67937;52.488;20.952;2023-08-07T08:34:58;1.10;;;1.10;;
78614;SDS011;67937;52.488;20.952;2023-08-07T08:37:26;1.10;;;1.10;;
78614;SDS011;67937;52.488;20.952;2023-08-07T08:39:55;1.30;;;1.20;;
78614;SDS011;67937;52.488;20.952;2023-08-07T08:42:54;1.60;;;1.40;;
78614;SDS011;67937;52.488;20.952;2023-08-07T08:45:28;3.00;;;1.20;;
78614;SDS011;67937;52.488;20.952;2023-08-07T08:48:01;1.20;;;1.10;;
78614;SDS011;67937;52.488;20.952;2023-08-07T08:50:30;1.70;;;1.60;;
78614;SDS011;67937;52.488;20.952;2023-08-07T08:53:05;1.30;;;1.20;;
78614;SDS011;67937;52.488;20.952;2023-08-07T08:55:34;1.10;;;1.00;;
78614;SDS011;67937;52.488;20.952;2023-08-07T08:58:03;0.80;;;0.80;;
78614;SDS011;67937;52.488;20.952;2023-08-07T09:00:33;1.10;;;1.00;;
78614;SDS011;67937;52.488;20.952;2023-08-07T09:03:02;1.10;;;1.00;;
78614;SDS011;67937;52.488;20.952;2023-08-07T09:05:30;0.80;;;0.80;;
78614;SDS011;67937;52.488;20.952;2023-08-07T09:07:59;0.90;;;0.90;;
78614;SDS011;67937;52.488;20.952;2023-08-07T09:10:28;1.40;;;1.30;;
78614;SDS011;67937;52.488;20.952;2023-08-07T09:13:03;3.30;;;1.40;;
78614;SDS011;67937;52.488;20.952;2023-08-07T09:15:33;2.70;;;1.50;;
78614;SDS011;67937;52.488;20.952;2023-08-07T09:18:03;2.60;;;2.00;;
78614;SDS011;67937;52.488;20.952;2023-08-07T09:20:36;2.40;;;2.20;;
78614;SDS011;67937;52.488;20.952;2023-08-07T09:23:06;1.70;;;1.60;;
78614;SDS011;67937;52.488;20.952;2023-08-07T09:25:34;1.50;;;1.40;;
78614;SDS011;67937;52.488;20.952;2023-08-07T09:28:03;1.90;;;1.80;;
78614;SDS011;67937;52.488;20.952;2023-08-07T09:30:35;1.30;;;1.30;;
78614;SDS011;67937;52.488;20.952;2023-08-07T09:33:04;1.40;;;1.30;;
78614;SDS011;67937;52.488;20.952;2023-08-07T09:35:33;1.70;;;1.40;;
78614;SDS011;67937;52.488;20.952;2023-08-07T09:38:01;1.60;;;1.50;;
78614;SDS011;67937;52.488;20.952;2023-08-07T09:40:31;1.50;;;1.40;;
78614;SDS011;67937;52.488;20.952;2023-08-07T09:43:00;1.50;;;1.40;;
78614;SDS011;67937;52.488;20.952;2023-08-07T09:45:32;1.40;;;1.10;;
78614;SDS011;67937;52.488;20.952;2023-08-07T09:48:04;2.00;;;1.80;;
78614;SDS011;67937;52.488;20.952;2023-08-07T09:50:35;1.30;;;1.20;;
78614;SDS011;67937;52.488;20.952;2023-08-07T09:53:04;1.70;;;1.30;;
78614;SDS011;67937;52.488;20.952;2023-08-07T09:55:34;2.20;;;1.20;;
78614;SDS011;67937;52.488;20.952;2023-08-07T09:58:05;1.10;;;1.00;;
78614;SDS011;67937;52.488;20.952;2023-08-07T10:00:37;2.20;;;1.10;;
78614;SDS011;67937;52.488;20.952;2023-08-07T10:03:05;14.90;;;1.60;;
78614;SDS011;67937;52.488;20.952;2023-08-07T10:05:34;1.20;;;1.00;;
78614;SDS011;67937;52.488;20.952;2023-08-07T10:08:02;1.20;;;1.00;;
78614;SDS011;67937;52.488;20.952;2023-08-07T10:10:33;1.00;;;1.00;;
78614;SDS011;67937;52.488;20.952;2023-08-07T10:13:02;0.90;;;0.90;;
78614;SDS011;67937;52.488;20.952;2023-08-07T10:15:31;1.10;;;0.80;;
78614;SDS011;67937;52.488;20.952;2023-08-07T10:18:01;1.50;;;1.20;;
78614;SDS011;67937;52.488;20.952;2023-08-07T10:20:29;0.70;;;0.70;;
78614;SDS011;67937;52.488;20.952;2023-08-07T10:23:08;1.00;;;1.00;;
78614;SDS011;67937;52.488;20.952;2023-08-07T10:25:37;1.20;;;1.20;;
78614;SDS011;67937;52.488;20.952;2023-08-07T10:28:10;2.50;;;1.10;;
78614;SDS011;67937;52.488;20.952;2023-08-07T10:30:41;1.40;;;1.20;;
78614;SDS011;67937;52.488;20.952;2023-08-07T10:33:16;1.10;;;1.00;;
78614;SDS011;67937;52.488;20.952;2023-08-07T10:35:48;1.00;;;1.00;;
78614;SDS011;67937;52.488;20.952;2023-08-07T10:38:19;1.70;;;1.10;;
78614;SDS011;67937;52.488;20.952;2023-08-07T10:43:30;1.40;;;1.20;;
78614;SDS011;67937;52.488;20.952;2023-08-07T10:46:05;1.10;;;1.00;;
78614;SDS011;67937;52.488;20.952;2023-08-07T10:48:44;0.70;;;0.70;;
78614;SDS011;67937;52.488;20.952;2023-08-07T10:51:15;0.90;;;0.80;;
78614;SDS011;67937;52.488;20.952;2023-08-07T10:56:39;0.70;;;0.70;;
78614;SDS011;67937;52.488;20.952;2023-08-07T10:59:11;0.70;;;0.70;;
78614;SDS011;67937;52.488;20.952;2023-08-07T11:01:41;0.80;;;0.80;;
78614;SDS011;67937;52.488;20.952;2023-08-07T11:04:11;2.70;;;1.00;;
78614;SDS011;67937;52.488;20.952;2023-08-07T11:06:42;0.80;;;0.80;;
78614;SDS011;67937;52.488;20.952;2023-08-07T11:09:15;1.00;;;0.90;;
78614;SDS011;67937;52.488;20.952;2023-08-07T11:11:46;0.80;;;0.80;;
78614;SDS011;67937;52.488;20.952;2023-08-07T11:14:16;1.60;;;1.00;;
78614;SDS011;67937;52.488;20.952;2023-08-07T11:16:46;2.50;;;1.10;;
78614;SDS011;67937;52.488;20.952;2023-08-07T11:19:28;1.20;;;1.10;;
78614;SDS011;67937;52.488;20.952;2023-08-07T11:21:57;1.70;;;0.90;;
78614;SDS011;67937;52.488;20.952;2023-08-07T11:24:29;1.60;;;0.80;;
78614;SDS011;67937;52.488;20.952;2023-08-07T11:26:58;1.90;;;1.10;;
78614;SDS011;67937;52.488;20.952;2023-08-07T11:29:26;0.70;;;0.70;;
78614;SDS011;67937;52.488;20.952;2023-08-07T11:31:55;1.20;;;1.10;;
78614;SDS011;67937;52.488;20.952;2023-08-07T11:34:26;1.30;;;1.20;;
78614;SDS011;67937;52.488;20.952;2023-08-07T11:36:55;1.60;;;1.00;;
78614;SDS011;67937;52.488;20.952;2023-08-07T11:39:24;1.40;;;0.90;;
78614;SDS011;67937;52.488;20.952;2023-08-07T11:41:55;2.30;;;1.00;;
78614;SDS011;67937;52.488;20.952;2023-08-07T11:44:23;1.10;;;1.10;;
78614;SDS011;67937;52.488;20.952;2023-08-07T11:46:52;0.90;;;0.90;;
78614;SDS011;67937;52.488;20.952;2023-08-07T11:49:20;3.00;;;1.00;;
78614;SDS011;67937;52.488;20.952;2023-08-07T11:51:48;3.10;;;1.30;;
78614;SDS011;67937;52.488;20.952;2023-08-07T11:54:16;0.90;;;0.60;;
78614;SDS011;67937;52.488;20.952;2023-08-07T11:56:45;1.40;;;0.80;;
78614;SDS011;67937;52.488;20.952;2023-08-07T11:59:16;2.30;;;1.00;;
78614;SDS011;67937;52.488;20.952;2023-08-07T12:01:45;2.10;;;1.90;;
78614;SDS011;67937;52.488;20.952;2023-08-07T12:04:17;1.10;;;1.10;;
78614;SDS011;67937;52.488;20.952;2023-08-07T12:06:55;1.50;;;0.90;;
78614;SDS011;67937;52.488;20.952;2023-08-07T12:09:25;1.30;;;1.20;;
78614;SDS011;67937;52.488;20.952;2023-08-07T12:11:56;1.80;;;1.60;;
78614;SDS011;67937;52.488;20.952;2023-08-07T12:14:29;1.70;;;1.10;;
78614;SDS011;67937;52.488;20.952;2023-08-07T12:17:00;1.60;;;0.90;;
78614;SDS011;67937;52.488;20.952;2023-08-07T12:19:38;1.20;;;1.10;;
78614;SDS011;67937;52.488;20.952;2023-08-07T12:22:10;1.10;;;1.00;;
78614;SDS011;67937;52.488;20.952;2023-08-07T12:24:40;1.60;;;1.10;;
78614;SDS011;67937;52.488;20.952;2023-08-07T12:27:11;1.30;;;1.10;;
78614;SDS011;67937;52.488;20.952;2023-08-07T12:29:40;1.30;;;1.20;;
78614;SDS011;67937;52.488;20.952;2023-08-07T12:32:08;1.90;;;1.30;;
78614;SDS011;67937;52.488;20.952;2023-08-07T12:34:36;1.60;;;1.20;;
78614;SDS011;67937;52.488;20.952;2023-08-07T12:37:05;1.40;;;1.20;;
78614;SDS011;67937;52.488;20.952;2023-08-07T12:39:36;1.80;;;1.20;;
78614;SDS011;67937;52.488;20.952;2023-08-07T12:42:05;2.70;;;1.30;;
78614;SDS011;67937;52.488;20.952;2023-08-07T12:44:36;1.40;;;1.30;;
78614;SDS011;67937;52.488;20.952;2023-08-07T12:47:05;1.60;;;1.10;;
78614;SDS011;67937;52.488;20.952;2023-08-07T12:49:33;2.70;;;1.60;;
78614;SDS011;67937;52.488;20.952;2023-08-07T12:52:02;2.00;;;1.30;;
78614;SDS011;67937;52.488;20.952;2023-08-07T12:54:30;6.40;;;1.30;;
78614;SDS011;67937;52.488;20.952;2023-08-07T12:57:00;1.30;;;1.20;;
78614;SDS011;67937;52.488;20.952;2023-08-07T12:59:30;2.80;;;1.30;;
78614;SDS011;67937;52.488;20.952;2023-08-07T13:01:58;1.30;;;1.20;;
78614;SDS011;67937;52.488;20.952;2023-08-07T13:04:26;0.70;;;0.70;;
78614;SDS011;67937;52.488;20.952;2023-08-07T13:06:55;2.40;;;1.00;;
78614;SDS011;67937;52.488;20.952;2023-08-07T13:09:23;1.30;;;1.10;;
78614;SDS011;67937;52.488;20.952;2023-08-07T13:11:51;1.60;;;1.00;;
78614;SDS011;67937;52.488;20.952;2023-08-07T13:14:19;1.40;;;1.30;;
78614;SDS011;67937;52.488;20.952;2023-08-07T13:16:47;1.20;;;1.00;;
78614;SDS011;67937;52.488;20.952;2023-08-07T13:19:16;0.90;;;0.80;;
78614;SDS011;67937;52.488;20.952;2023-08-07T13:21:44;1.70;;;1.00;;
78614;SDS011;67937;52.488;20.952;2023-08-07T13:24:12;1.00;;;1.00;;
78614;SDS011;67937;52.488;20.952;2023-08-07T13:26:40;2.10;;;0.90;;
78614;SDS011;67937;52.488;20.952;2023-08-07T13:29:11;1.50;;;1.30;;
78614;SDS011;67937;52.488;20.952;2023-08-07T13:31:40;1.40;;;1.00;;
78614;SDS011;67937;52.488;20.952;2023-08-07T13:34:10;2.10;;;1.20;;
78614;SDS011;67937;52.488;20.952;2023-08-07T13:36:38;2.60;;;1.20;;
78614;SDS011;67937;52.488;20.952;2023-08-07T13:39:08;1.60;;;1.00;;
78614;SDS011;67937;52.488;20.952;2023-08-07T13:42:23;1.90;;;1.40;;
78614;SDS011;67937;52.488;20.952;2023-08-07T13:44:59;1.20;;;1.10;;
78614;SDS011;67937;52.488;20.952;2023-08-07T13:47:49;1.20;;;0.90;;
78614;SDS011;67937;52.488;20.952;2023-08-07T13:50:18;2.50;;;1.20;;
78614;SDS011;67937;52.488;20.952;2023-08-07T13:52:51;1.60;;;1.50;;
78614;SDS011;67937;52.488;20.952;2023-08-07T13:55:22;9.40;;;1.10;;
78614;SDS011;67937;52.488;20.952;2023-08-07T13:57:50;1.90;;;1.20;;
78614;SDS011;67937;52.488;20.952;2023-08-07T14:00:19;1.20;;;1.10;;
78614;SDS011;67937;52.488;20.952;2023-08-07T14:02:47;1.30;;;1.20;;
78614;SDS011;67937;52.488;20.952;2023-08-07T14:05:15;3.20;;;2.70;;
78614;SDS011;67937;52.488;20.952;2023-08-07T14:07:54;1.30;;;1.20;;
78614;SDS011;67937;52.488;20.952;2023-08-07T14:14:16;1.90;;;1.60;;
78614;SDS011;67937;52.488;20.952;2023-08-07T14:17:07;2.20;;;1.60;;
78614;SDS011;67937;52.488;20.952;2023-08-07T14:19:40;1.50;;;1.40;;
78614;SDS011;67937;52.488;20.952;2023-08-07T14:26:17;1.60;;;1.30;;
78614;SDS011;67937;52.488;20.952;2023-08-07T14:32:09;1.80;;;1.10;;
78614;SDS011;67937;52.488;20.952;2023-08-07T14:39:21;1.40;;;1.30;;
78614;SDS011;67937;52.488;20.952;2023-08-07T14:42:47;2.40;;;1.30;;
78614;SDS011;67937;52.488;20.952;2023-08-07T14:56:15;1.50;;;1.40;;
78614;SDS011;67937;52.488;20.952;2023-08-07T14:58:47;1.20;;;1.10;;
78614;SDS011;67937;52.488;20.952;2023-08-07T15:01:15;1.40;;;1.30;;
78614;SDS011;67937;52.488;20.952;2023-08-07T15:03:44;1.30;;;1.10;;
78614;SDS011;67937;52.488;20.952;2023-08-07T15:06:12;2.70;;;1.20;;
78614;SDS011;67937;52.488;20.952;2023-08-07T15:08:41;3.50;;;1.30;;
78614;SDS011;67937;52.488;20.952;2023-08-07T15:11:10;1.90;;;1.20;;
78614;SDS011;67937;52.488;20.952;2023-08-07T15:13:38;1.20;;;1.10;;
78614;SDS011;67937;52.488;20.952;2023-08-07T15:16:07;1.20;;;1.10;;
78614;SDS011;67937;52.488;20.952;2023-08-07T15:18:35;5.80;;;1.10;;
78614;SDS011;67937;52.488;20.952;2023-08-07T15:21:04;1.90;;;1.40;;
78614;SDS011;67937;52.488;20.952;2023-08-07T15:23:32;1.50;;;1.40;;
78614;SDS011;67937;52.488;20.952;2023-08-07T15:26:00;2.00;;;1.40;;
78614;SDS011;67937;52.488;20.952;2023-08-07T15:28:29;2.40;;;1.40;;
78614;SDS011;67937;52.488;20.952;2023-08-07T15:30:57;4.30;;;1.50;;
78614;SDS011;67937;52.488;20.952;2023-08-07T15:33:25;3.20;;;1.40;;
78614;SDS011;67937;52.488;20.952;2023-08-07T15:35:54;1.00;;;1.00;;
78614;SDS011;67937;52.488;20.952;2023-08-07T15:38:23;2.70;;;1.70;;
78614;SDS011;67937;52.488;20.952;2023-08-07T15:40:53;1.70;;;1.40;;
78614;SDS011;67937;52.488;20.952;2023-08-07T15:43:22;1.60;;;1.50;;
78614;SDS011;67937;52.488;20.952;2023-08-07T15:45:50;2.20;;;1.50;;
78614;SDS011;67937;52.488;20.952;2023-08-07T15:48:21;1.40;;;1.30;;
78614;SDS011;67937;52.488;20.952;2023-08-07T15:50:50;1.50;;;1.20;;